sensor_id;sensor_type;location;lat;lon;timestamp;pressure;altitude;pressure_sealevel;temperature;humidity
4199;BME280;2113;50.946;14.610;2023-05-21T00:01:59;97166.84;;;9.18;98.23
4199;BME280;2113;50.946;14.610;2023-05-21T00:04:27;97163.09;;;9.11;98.56
4199;BME280;2113;50.946;14.610;2023-05-21T00:06:55;97159.47;;;9.03;97.68
4199;BME280;2113;50.946;14.610;2023-05-21T00:09:24;97162.06;;;9.03;97.62
4199;BME280;2113;50.946;14.610;2023-05-21T00:11:52;97155.47;;;8.99;97.67
4199;BME280;2113;50.946;14.610;2023-05-21T00:14:21;97156.59;;;9.06;97.68
4199;BME280;2113;50.946;14.610;2023-05-21T00:16:49;97158.63;;;9.02;96.93
4199;BME280;2113;50.946;14.610;2023-05-21T00:19:19;97163.72;;;9.04;96.82
4199;BME280;2113;50.946;14.610;2023-05-21T00:21:48;97161.44;;;9.10;97.10
4199;BME280;2113;50.946;14.610;2023-05-21T00:24:16;97158.38;;;9.05;97.19
4199;BME280;2113;50.946;14.610;2023-05-21T00:26:45;97161.63;;;8.98;97.86
4199;BME280;2113;50.946;14.610;2023-05-21T00:29:13;97150.28;;;8.99;97.89
4199;BME280;2113;50.946;14.610;2023-05-21T00:31:41;97148.63;;;8.98;98.04
4199;BME280;2113;50.946;14.610;2023-05-21T00:34:12;97149.19;;;9.01;98.05
4199;BME280;2113;50.946;14.610;2023-05-21T00:36:43;97145.31;;;8.96;98.41
4199;BME280;2113;50.946;14.610;2023-05-21T00:39:12;97144.31;;;8.87;98.41
4199;BME280;2113;50.946;14.610;2023-05-21T00:41:41;97152.13;;;8.87;98.87
4199;BME280;2113;50.946;14.610;2023-05-21T00:44:13;97145.38;;;8.84;98.32
4199;BME280;2113;50.946;14.610;2023-05-21T00:46:42;97143.91;;;8.71;98.82
4199;BME280;2113;50.946;14.610;2023-05-21T00:49:11;97148.53;;;8.67;97.84
4199;BME280;2113;50.946;14.610;2023-05-21T00:51:42;97146.63;;;8.69;97.18
4199;BME280;2113;50.946;14.610;2023-05-21T00:54:10;97140.47;;;8.70;97.37
4199;BME280;2113;50.946;14.610;2023-05-21T00:56:39;97134.63;;;8.57;98.05
4199;BME280;2113;50.946;14.610;2023-05-21T00:59:08;97146.03;;;8.45;98.26
4199;BME280;2113;50.946;14.610;2023-05-21T01:01:36;97139.16;;;8.44;97.64
4199;BME280;2113;50.946;14.610;2023-05-21T01:04:04;97142.50;;;8.35;98.35
4199;BME280;2113;50.946;14.610;2023-05-21T01:06:33;97139.22;;;8.33;98.99
4199;BME280;2113;50.946;14.610;2023-05-21T01:09:03;97127.69;;;8.46;99.27
4199;BME280;2113;50.946;14.610;2023-05-21T01:11:37;97134.63;;;8.57;99.30
4199;BME280;2113;50.946;14.610;2023-05-21T01:14:09;97132.91;;;8.67;99.90
4199;BME280;2113;50.946;14.610;2023-05-21T01:16:39;97134.31;;;8.71;99.89
4199;BME280;2113;50.946;14.610;2023-05-21T01:19:10;97123.72;;;8.84;100.00
4199;BME280;2113;50.946;14.610;2023-05-21T01:21:44;97127.19;;;8.94;100.00
4199;BME280;2113;50.946;14.610;2023-05-21T01:24:14;97121.50;;;9.00;100.00
4199;BME280;2113;50.946;14.610;2023-05-21T01:26:43;97117.97;;;9.11;99.70
4199;BME280;2113;50.946;14.610;2023-05-21T01:29:13;97125.22;;;9.07;98.77
4199;BME280;2113;50.946;14.610;2023-05-21T01:31:50;97114.50;;;9.01;98.80
4199;BME280;2113;50.946;14.610;2023-05-21T01:34:25;97114.00;;;8.86;97.72
4199;BME280;2113;50.946;14.610;2023-05-21T01:36:59;97109.28;;;8.80;97.73
4199;BME280;2113;50.946;14.610;2023-05-21T01:39:33;97109.03;;;8.83;98.79
4199;BME280;2113;50.946;14.610;2023-05-21T01:42:08;97117.59;;;8.95;99.53
4199;BME280;2113;50.946;14.610;2023-05-21T01:44:38;97111.81;;;9.12;99.62
4199;BME280;2113;50.946;14.610;2023-05-21T01:47:07;97108.50;;;9.10;99.51
4199;BME280;2113;50.946;14.610;2023-05-21T01:49:37;97120.00;;;9.07;99.26
4199;BME280;2113;50.946;14.610;2023-05-21T01:52:05;97116.94;;;9.02;99.04
4199;BME280;2113;50.946;14.610;2023-05-21T01:54:36;97113.72;;;8.89;98.55
4199;BME280;2113;50.946;14.610;2023-05-21T01:57:05;97117.44;;;8.86;98.99
4199;BME280;2113;50.946;14.610;2023-05-21T01:59:35;97114.41;;;8.91;99.24
4199;BME280;2113;50.946;14.610;2023-05-21T02:02:03;97106.44;;;8.83;99.18
4199;BME280;2113;50.946;14.610;2023-05-21T02:04:32;97110.81;;;8.82;99.25
4199;BME280;2113;50.946;14.610;2023-05-21T02:07:00;97110.63;;;8.95;98.99
4199;BME280;2113;50.946;14.610;2023-05-21T02:09:29;97107.44;;;8.91;99.00
4199;BME280;2113;50.946;14.610;2023-05-21T02:11:59;97100.97;;;8.86;99.03
4199;BME280;2113;50.946;14.610;2023-05-21T02:14:28;97095.00;;;8.74;98.82
4199;BME280;2113;50.946;14.610;2023-05-21T02:16:56;97088.41;;;8.70;98.83
4199;BME280;2113;50.946;14.610;2023-05-21T02:19:24;97092.06;;;8.68;99.30
4199;BME280;2113;50.946;14.610;2023-05-21T02:21:53;97089.94;;;8.73;99.44
4199;BME280;2113;50.946;14.610;2023-05-21T02:24:22;97093.72;;;8.89;98.96
4199;BME280;2113;50.946;14.610;2023-05-21T02:26:50;97091.69;;;8.93;98.16
4199;BME280;2113;50.946;14.610;2023-05-21T02:29:20;97091.75;;;8.82;98.09
4199;BME280;2113;50.946;14.610;2023-05-21T02:31:48;97087.56;;;8.70;100.00
4199;BME280;2113;50.946;14.610;2023-05-21T02:34:17;97093.09;;;8.55;99.39
4199;BME280;2113;50.946;14.610;2023-05-21T02:36:46;97093.03;;;8.46;99.29
4199;BME280;2113;50.946;14.610;2023-05-21T02:39:18;97101.19;;;8.41;99.65
4199;BME280;2113;50.946;14.610;2023-05-21T02:41:46;97100.69;;;8.47;100.00
4199;BME280;2113;50.946;14.610;2023-05-21T02:44:14;97101.13;;;8.52;100.00
4199;BME280;2113;50.946;14.610;2023-05-21T02:46:46;97100.84;;;8.67;100.00
4199;BME280;2113;50.946;14.610;2023-05-21T02:49:16;97097.78;;;8.82;100.00
4199;BME280;2113;50.946;14.610;2023-05-21T02:51:46;97097.97;;;8.90;100.00
4199;BME280;2113;50.946;14.610;2023-05-21T02:54:14;97093.78;;;8.78;100.00
4199;BME280;2113;50.946;14.610;2023-05-21T02:56:42;97099.25;;;8.75;99.76
4199;BME280;2113;50.946;14.610;2023-05-21T02:59:11;97099.13;;;8.56;99.56
4199;BME280;2113;50.946;14.610;2023-05-21T03:01:39;97096.88;;;8.51;100.00
4199;BME280;2113;50.946;14.610;2023-05-21T03:04:11;97099.13;;;8.56;100.00
4199;BME280;2113;50.946;14.610;2023-05-21T03:06:39;97089.22;;;8.71;100.00
4199;BME280;2113;50.946;14.610;2023-05-21T03:09:07;97096.00;;;8.62;100.00
4199;BME280;2113;50.946;14.610;2023-05-21T03:11:35;97098.41;;;8.54;100.00
4199;BME280;2113;50.946;14.610;2023-05-21T03:14:03;97101.97;;;8.53;100.00
4199;BME280;2113;50.946;14.610;2023-05-21T03:16:33;97096.75;;;8.53;100.00
4199;BME280;2113;50.946;14.610;2023-05-21T03:19:03;97095.88;;;8.64;100.00
4199;BME280;2113;50.946;14.610;2023-05-21T03:21:33;97099.44;;;8.63;100.00
4199;BME280;2113;50.946;14.610;2023-05-21T03:24:02;97102.25;;;8.71;100.00
4199;BME280;2113;50.946;14.610;2023-05-21T03:26:31;97103.56;;;8.65;99.75
4199;BME280;2113;50.946;14.610;2023-05-21T03:28:59;97105.59;;;8.62;99.81
4199;BME280;2113;50.946;14.610;2023-05-21T03:31:28;97109.81;;;8.74;99.87
4199;BME280;2113;50.946;14.610;2023-05-21T03:34:17;97103.50;;;8.76;98.98
4199;BME280;2113;50.946;14.610;2023-05-21T03:36:49;97107.81;;;8.66;98.00
4199;BME280;2113;50.946;14.610;2023-05-21T03:39:17;97109.00;;;8.62;98.23
4199;BME280;2113;50.946;14.610;2023-05-21T03:41:47;97102.81;;;8.74;97.85
4199;BME280;2113;50.946;14.610;2023-05-21T03:44:22;97106.38;;;8.73;97.93
4199;BME280;2113;50.946;14.610;2023-05-21T03:46:59;97105.34;;;8.85;98.04
4199;BME280;2113;50.946;14.610;2023-05-21T03:49:33;97100.44;;;8.92;98.99
4199;BME280;2113;50.946;14.610;2023-05-21T03:52:04;97102.94;;;9.14;100.00
4199;BME280;2113;50.946;14.610;2023-05-21T03:54:33;97108.31;;;9.22;100.00
4199;BME280;2113;50.946;14.610;2023-05-21T03:57:04;97099.16;;;9.28;99.87
4199;BME280;2113;50.946;14.610;2023-05-21T03:59:33;97094.22;;;9.35;99.97
4199;BME280;2113;50.946;14.610;2023-05-21T04:02:01;97104.31;;;9.49;99.33
4199;BME280;2113;50.946;14.610;2023-05-21T04:04:31;97094.41;;;9.43;99.48
4199;BME280;2113;50.946;14.610;2023-05-21T04:07:01;97096.88;;;9.44;99.79
4199;BME280;2113;50.946;14.610;2023-05-21T04:09:31;97097.31;;;9.49;99.96
4199;BME280;2113;50.946;14.610;2023-05-21T04:12:02;97092.25;;;9.57;97.53
4199;BME280;2113;50.946;14.610;2023-05-21T04:14:31;97092.06;;;9.40;97.70
4199;BME280;2113;50.946;14.610;2023-05-21T04:17:00;97097.88;;;9.53;97.62
4199;BME280;2113;50.946;14.610;2023-05-21T04:19:31;97100.22;;;9.56;97.06
4199;BME280;2113;50.946;14.610;2023-05-21T04:22:01;97094.03;;;9.57;98.03
4199;BME280;2113;50.946;14.610;2023-05-21T04:24:32;97099.69;;;9.72;97.98
4199;BME280;2113;50.946;14.610;2023-05-21T04:27:10;97103.19;;;9.91;97.42
4199;BME280;2113;50.946;14.610;2023-05-21T04:29:40;97102.81;;;10.06;96.69
4199;BME280;2113;50.946;14.610;2023-05-21T04:32:09;97096.25;;;10.11;95.95
4199;BME280;2113;50.946;14.610;2023-05-21T04:34:41;97097.19;;;10.10;95.20
4199;BME280;2113;50.946;14.610;2023-05-21T04:37:09;97100.34;;;10.14;94.98
4199;BME280;2113;50.946;14.610;2023-05-21T04:39:39;97098.06;;;10.30;94.74
4199;BME280;2113;50.946;14.610;2023-05-21T04:42:08;97096.69;;;10.36;95.00
4199;BME280;2113;50.946;14.610;2023-05-21T04:44:38;97100.13;;;10.46;94.98
4199;BME280;2113;50.946;14.610;2023-05-21T04:47:08;97094.63;;;10.58;94.84
4199;BME280;2113;50.946;14.610;2023-05-21T04:49:38;97092.66;;;10.80;94.24
4199;BME280;2113;50.946;14.610;2023-05-21T04:52:06;97091.88;;;10.79;94.33
4199;BME280;2113;50.946;14.610;2023-05-21T04:54:35;97088.28;;;10.90;93.91
4199;BME280;2113;50.946;14.610;2023-05-21T04:57:06;97095.66;;;10.94;93.70
4199;BME280;2113;50.946;14.610;2023-05-21T04:59:34;97090.69;;;11.11;93.47
4199;BME280;2113;50.946;14.610;2023-05-21T05:02:03;97092.28;;;11.21;93.51
4199;BME280;2113;50.946;14.610;2023-05-21T05:04:31;97087.28;;;11.37;93.31
4199;BME280;2113;50.946;14.610;2023-05-21T05:07:00;97084.47;;;11.58;93.31
4199;BME280;2113;50.946;14.610;2023-05-21T05:09:28;97092.09;;;11.79;92.76
4199;BME280;2113;50.946;14.610;2023-05-21T05:11:57;97079.72;;;11.99;91.79
4199;BME280;2113;50.946;14.610;2023-05-21T05:14:27;97081.91;;;12.21;91.84
4199;BME280;2113;50.946;14.610;2023-05-21T05:16:55;97088.13;;;12.38;91.86
4199;BME280;2113;50.946;14.610;2023-05-21T05:19:27;97081.53;;;12.52;91.82
4199;BME280;2113;50.946;14.610;2023-05-21T05:21:55;97071.34;;;12.66;91.64
4199;BME280;2113;50.946;14.610;2023-05-21T05:24:25;97080.81;;;12.85;90.86
4199;BME280;2113;50.946;14.610;2023-05-21T05:26:53;97079.09;;;12.94;89.84
4199;BME280;2113;50.946;14.610;2023-05-21T05:29:21;97082.72;;;13.01;89.97
4199;BME280;2113;50.946;14.610;2023-05-21T05:31:51;97082.47;;;13.12;90.51
4199;BME280;2113;50.946;14.610;2023-05-21T05:34:20;97084.28;;;13.11;90.54
4199;BME280;2113;50.946;14.610;2023-05-21T05:36:48;97073.91;;;13.28;90.25
4199;BME280;2113;50.946;14.610;2023-05-21T05:39:16;97076.28;;;13.39;89.84
4199;BME280;2113;50.946;14.610;2023-05-21T05:41:45;97074.22;;;13.50;89.49
4199;BME280;2113;50.946;14.610;2023-05-21T05:44:14;97075.41;;;13.64;89.29
4199;BME280;2113;50.946;14.610;2023-05-21T05:46:44;97068.75;;;13.78;91.01
4199;BME280;2113;50.946;14.610;2023-05-21T05:49:14;97063.69;;;13.93;91.13
4199;BME280;2113;50.946;14.610;2023-05-21T05:51:42;97062.91;;;14.08;89.25
4199;BME280;2113;50.946;14.610;2023-05-21T05:54:11;97055.53;;;14.12;89.36
4199;BME280;2113;50.946;14.610;2023-05-21T05:56:40;97056.22;;;14.38;88.50
4199;BME280;2113;50.946;14.610;2023-05-21T05:59:08;97045.09;;;14.44;86.90
4199;BME280;2113;50.946;14.610;2023-05-21T06:01:38;97048.03;;;14.66;86.49
4199;BME280;2113;50.946;14.610;2023-05-21T06:04:09;97044.72;;;14.96;85.20
4199;BME280;2113;50.946;14.610;2023-05-21T06:06:39;97047.63;;;15.17;84.45
4199;BME280;2113;50.946;14.610;2023-05-21T06:09:08;97049.84;;;15.53;83.67
4199;BME280;2113;50.946;14.610;2023-05-21T06:11:37;97050.41;;;15.79;82.84
4199;BME280;2113;50.946;14.610;2023-05-21T06:14:05;97040.47;;;15.50;84.43
4199;BME280;2113;50.946;14.610;2023-05-21T06:16:34;97051.38;;;15.39;87.40
4199;BME280;2113;50.946;14.610;2023-05-21T06:19:03;97047.66;;;15.09;88.84
4199;BME280;2113;50.946;14.610;2023-05-21T06:21:31;97045.03;;;15.09;87.62
4199;BME280;2113;50.946;14.610;2023-05-21T06:24:02;97046.59;;;15.43;86.20
4199;BME280;2113;50.946;14.610;2023-05-21T06:26:31;97042.31;;;15.42;85.52
4199;BME280;2113;50.946;14.610;2023-05-21T06:29:01;97046.91;;;15.56;85.00
4199;BME280;2113;50.946;14.610;2023-05-21T06:31:30;97047.00;;;15.71;83.07
4199;BME280;2113;50.946;14.610;2023-05-21T06:33:59;97042.63;;;15.86;84.75
4199;BME280;2113;50.946;14.610;2023-05-21T06:36:29;97041.47;;;16.19;83.21
4199;BME280;2113;50.946;14.610;2023-05-21T06:38:58;97038.69;;;16.66;82.45
4199;BME280;2113;50.946;14.610;2023-05-21T06:41:28;97036.81;;;16.90;80.00
4199;BME280;2113;50.946;14.610;2023-05-21T06:44:00;97045.22;;;17.08;78.61
4199;BME280;2113;50.946;14.610;2023-05-21T06:47:00;97042.84;;;17.28;78.49
4199;BME280;2113;50.946;14.610;2023-05-21T06:49:30;97045.78;;;18.13;76.78
4199;BME280;2113;50.946;14.610;2023-05-21T06:51:59;97050.22;;;20.69;65.28
4199;BME280;2113;50.946;14.610;2023-05-21T06:54:28;97039.78;;;22.74;58.98
4199;BME280;2113;50.946;14.610;2023-05-21T06:56:57;97043.63;;;24.55;52.13
4199;BME280;2113;50.946;14.610;2023-05-21T06:59:26;97053.03;;;25.46;49.20
4199;BME280;2113;50.946;14.610;2023-05-21T07:01:54;97054.19;;;25.73;47.65
4199;BME280;2113;50.946;14.610;2023-05-21T07:04:22;97051.88;;;26.17;46.46
4199;BME280;2113;50.946;14.610;2023-05-21T07:06:50;97048.09;;;27.20;44.10
4199;BME280;2113;50.946;14.610;2023-05-21T07:09:19;97049.63;;;26.26;46.07
4199;BME280;2113;50.946;14.610;2023-05-21T07:11:48;97046.88;;;27.28;43.94
4199;BME280;2113;50.946;14.610;2023-05-21T07:14:20;97034.00;;;28.07;42.69
4199;BME280;2113;50.946;14.610;2023-05-21T07:16:49;97037.00;;;27.50;43.82
4199;BME280;2113;50.946;14.610;2023-05-21T07:19:18;97044.53;;;26.52;44.48
4199;BME280;2113;50.946;14.610;2023-05-21T07:21:49;97037.69;;;27.57;42.25
4199;BME280;2113;50.946;14.610;2023-05-21T07:24:17;97028.78;;;29.82;38.06
4199;BME280;2113;50.946;14.610;2023-05-21T07:26:45;97028.00;;;30.94;36.13
4199;BME280;2113;50.946;14.610;2023-05-21T07:29:13;97029.25;;;29.63;36.66
4199;BME280;2113;50.946;14.610;2023-05-21T07:31:43;97026.66;;;29.94;36.45
4199;BME280;2113;50.946;14.610;2023-05-21T07:34:12;97023.03;;;29.21;38.76
4199;BME280;2113;50.946;14.610;2023-05-21T07:36:41;97025.31;;;26.55;41.07
4199;BME280;2113;50.946;14.610;2023-05-21T07:39:09;97034.22;;;25.53;46.66
4199;BME280;2113;50.946;14.610;2023-05-21T07:41:37;97029.38;;;26.30;43.55
4199;BME280;2113;50.946;14.610;2023-05-21T07:44:07;97033.63;;;24.51;46.38
4199;BME280;2113;50.946;14.610;2023-05-21T07:46:39;97034.78;;;25.55;45.68
4199;BME280;2113;50.946;14.610;2023-05-21T07:49:11;97036.81;;;26.56;42.75
4199;BME280;2113;50.946;14.610;2023-05-21T07:51:44;97031.16;;;25.72;45.84
4199;BME280;2113;50.946;14.610;2023-05-21T07:54:14;97024.44;;;26.83;44.02
4199;BME280;2113;50.946;14.610;2023-05-21T07:56:43;97023.44;;;27.56;42.42
4199;BME280;2113;50.946;14.610;2023-05-21T07:59:24;97026.88;;;28.17;41.06
4199;BME280;2113;50.946;14.610;2023-05-21T08:01:52;97034.03;;;29.19;39.59
4199;BME280;2113;50.946;14.610;2023-05-21T08:04:22;97031.78;;;29.95;37.76
4199;BME280;2113;50.946;14.610;2023-05-21T08:06:51;97031.06;;;29.16;39.10
4199;BME280;2113;50.946;14.610;2023-05-21T08:09:19;97038.94;;;30.27;37.96
4199;BME280;2113;50.946;14.610;2023-05-21T08:11:47;97035.25;;;28.70;40.27
4199;BME280;2113;50.946;14.610;2023-05-21T08:14:15;97032.13;;;28.07;43.01
4199;BME280;2113;50.946;14.610;2023-05-21T08:16:45;97032.09;;;26.92;44.28
4199;BME280;2113;50.946;14.610;2023-05-21T08:19:13;97037.09;;;25.74;47.79
4199;BME280;2113;50.946;14.610;2023-05-21T08:21:43;97038.53;;;26.45;46.55
4199;BME280;2113;50.946;14.610;2023-05-21T08:24:12;97035.94;;;27.68;43.42
4199;BME280;2113;50.946;14.610;2023-05-21T08:26:41;97041.56;;;28.10;41.60
4199;BME280;2113;50.946;14.610;2023-05-21T08:29:10;97038.69;;;28.92;40.55
4199;BME280;2113;50.946;14.610;2023-05-21T08:31:39;97034.06;;;27.51;42.24
4199;BME280;2113;50.946;14.610;2023-05-21T08:34:07;97041.44;;;27.22;43.06
4199;BME280;2113;50.946;14.610;2023-05-21T08:36:46;97041.28;;;29.56;39.49
4199;BME280;2113;50.946;14.610;2023-05-21T08:39:45;97035.47;;;28.95;39.37
4199;BME280;2113;50.946;14.610;2023-05-21T08:42:19;97041.66;;;30.37;37.32
4199;BME280;2113;50.946;14.610;2023-05-21T08:45:04;97036.88;;;29.87;37.83
4199;BME280;2113;50.946;14.610;2023-05-21T08:47:34;97036.66;;;31.12;37.03
4199;BME280;2113;50.946;14.610;2023-05-21T08:50:04;97043.50;;;30.16;37.27
4199;BME280;2113;50.946;14.610;2023-05-21T08:52:37;97043.13;;;29.45;38.92
4199;BME280;2113;50.946;14.610;2023-05-21T08:55:07;97044.41;;;26.92;43.21
4199;BME280;2113;50.946;14.610;2023-05-21T08:57:41;97037.75;;;28.06;41.23
4199;BME280;2113;50.946;14.610;2023-05-21T09:00:13;97045.19;;;28.42;41.63
4199;BME280;2113;50.946;14.610;2023-05-21T09:02:42;97046.44;;;28.61;40.67
4199;BME280;2113;50.946;14.610;2023-05-21T09:05:14;97042.00;;;28.23;42.36
4199;BME280;2113;50.946;14.610;2023-05-21T09:07:47;97045.44;;;28.68;42.15
4199;BME280;2113;50.946;14.610;2023-05-21T09:10:35;97043.56;;;29.00;40.41
4199;BME280;2113;50.946;14.610;2023-05-21T09:13:04;97039.28;;;29.83;39.35
4199;BME280;2113;50.946;14.610;2023-05-21T09:15:34;97040.81;;;28.36;40.73
4199;BME280;2113;50.946;14.610;2023-05-21T09:18:03;97041.06;;;28.13;42.06
4199;BME280;2113;50.946;14.610;2023-05-21T09:20:40;97034.97;;;28.44;42.66
4199;BME280;2113;50.946;14.610;2023-05-21T09:23:11;97039.06;;;27.26;44.49
4199;BME280;2113;50.946;14.610;2023-05-21T09:25:46;97040.00;;;27.70;42.40
4199;BME280;2113;50.946;14.610;2023-05-21T09:28:29;97033.41;;;29.07;39.72
4199;BME280;2113;50.946;14.610;2023-05-21T09:31:02;97034.09;;;28.17;41.39
4199;BME280;2113;50.946;14.610;2023-05-21T09:33:32;97033.00;;;27.91;43.28
4199;BME280;2113;50.946;14.610;2023-05-21T09:36:01;97035.31;;;28.04;43.25
4199;BME280;2113;50.946;14.610;2023-05-21T09:38:32;97032.44;;;28.59;40.96
4199;BME280;2113;50.946;14.610;2023-05-21T09:41:03;97031.19;;;28.99;39.86
4199;BME280;2113;50.946;14.610;2023-05-21T09:43:33;97031.13;;;27.91;40.61
4199;BME280;2113;50.946;14.610;2023-05-21T09:46:01;97030.88;;;27.16;44.99
4199;BME280;2113;50.946;14.610;2023-05-21T09:48:32;97025.56;;;26.71;45.51
4199;BME280;2113;50.946;14.610;2023-05-21T09:51:13;97029.66;;;25.76;46.08
4199;BME280;2113;50.946;14.610;2023-05-21T09:53:47;97025.94;;;26.46;44.63
4199;BME280;2113;50.946;14.610;2023-05-21T09:56:18;97024.09;;;27.85;43.81
4199;BME280;2113;50.946;14.610;2023-05-21T09:58:52;97025.59;;;27.21;44.57
4199;BME280;2113;50.946;14.610;2023-05-21T10:01:23;97026.22;;;26.61;46.64
4199;BME280;2113;50.946;14.610;2023-05-21T10:03:53;97020.78;;;27.23;45.35
4199;BME280;2113;50.946;14.610;2023-05-21T10:06:24;97024.09;;;25.43;45.98
4199;BME280;2113;50.946;14.610;2023-05-21T10:08:55;97017.41;;;26.20;48.36
4199;BME280;2113;50.946;14.610;2023-05-21T10:11:30;97013.00;;;27.21;45.96
4199;BME280;2113;50.946;14.610;2023-05-21T10:14:04;97010.53;;;27.37;41.86
4199;BME280;2113;50.946;14.610;2023-05-21T10:16:34;97009.91;;;27.30;43.87
4199;BME280;2113;50.946;14.610;2023-05-21T10:19:02;97020.59;;;25.54;46.87
4199;BME280;2113;50.946;14.610;2023-05-21T10:21:32;97011.84;;;25.70;46.63
4199;BME280;2113;50.946;14.610;2023-05-21T10:24:02;97020.44;;;25.96;44.90
4199;BME280;2113;50.946;14.610;2023-05-21T10:26:31;97018.75;;;25.55;44.42
4199;BME280;2113;50.946;14.610;2023-05-21T10:29:01;97013.06;;;26.76;46.23
4199;BME280;2113;50.946;14.610;2023-05-21T10:31:30;97018.31;;;27.38;41.57
4199;BME280;2113;50.946;14.610;2023-05-21T10:33:59;97015.78;;;27.48;39.36
4199;BME280;2113;50.946;14.610;2023-05-21T10:36:29;97020.28;;;26.59;42.01
4199;BME280;2113;50.946;14.610;2023-05-21T10:38:59;97024.59;;;26.77;40.93
4199;BME280;2113;50.946;14.610;2023-05-21T10:41:37;97022.91;;;26.14;46.01
4199;BME280;2113;50.946;14.610;2023-05-21T10:44:18;97018.69;;;26.30;43.46
4199;BME280;2113;50.946;14.610;2023-05-21T10:47:04;97009.53;;;27.04;38.44
4199;BME280;2113;50.946;14.610;2023-05-21T10:49:57;97010.94;;;25.53;42.29
4199;BME280;2113;50.946;14.610;2023-05-21T10:52:37;97017.84;;;25.14;44.01
4199;BME280;2113;50.946;14.610;2023-05-21T10:55:18;97013.63;;;25.65;42.95
4199;BME280;2113;50.946;14.610;2023-05-21T11:00:51;97010.97;;;25.06;43.66
4199;BME280;2113;50.946;14.610;2023-05-21T11:03:21;97001.66;;;26.36;44.38
4199;BME280;2113;50.946;14.610;2023-05-21T11:05:51;96997.59;;;27.34;41.93
4199;BME280;2113;50.946;14.610;2023-05-21T11:08:21;96997.00;;;27.48;42.64
4199;BME280;2113;50.946;14.610;2023-05-21T11:10:51;96999.28;;;26.39;44.10
4199;BME280;2113;50.946;14.610;2023-05-21T11:13:22;97003.22;;;26.20;44.80
4199;BME280;2113;50.946;14.610;2023-05-21T11:16:06;97003.50;;;25.55;46.81
4199;BME280;2113;50.946;14.610;2023-05-21T11:18:58;96997.25;;;25.03;48.20
4199;BME280;2113;50.946;14.610;2023-05-21T11:21:29;96993.94;;;24.77;47.69
4199;BME280;2113;50.946;14.610;2023-05-21T11:24:06;96992.84;;;23.47;52.39
4199;BME280;2113;50.946;14.610;2023-05-21T11:26:59;96999.88;;;24.08;51.75
4199;BME280;2113;50.946;14.610;2023-05-21T11:29:40;96991.88;;;24.08;51.68
4199;BME280;2113;50.946;14.610;2023-05-21T11:32:14;96992.56;;;23.73;52.19
4199;BME280;2113;50.946;14.610;2023-05-21T11:34:46;96999.22;;;23.64;51.22
4199;BME280;2113;50.946;14.610;2023-05-21T11:37:32;96995.44;;;23.11;52.55
4199;BME280;2113;50.946;14.610;2023-05-21T11:44:37;96990.16;;;23.47;52.76
4199;BME280;2113;50.946;14.610;2023-05-21T11:47:08;96992.03;;;23.65;53.14
4199;BME280;2113;50.946;14.610;2023-05-21T11:49:37;96989.59;;;23.63;52.73
4199;BME280;2113;50.946;14.610;2023-05-21T11:52:07;96983.63;;;23.80;53.33
4199;BME280;2113;50.946;14.610;2023-05-21T11:54:39;96989.34;;;23.65;54.16
4199;BME280;2113;50.946;14.610;2023-05-21T11:57:07;96997.28;;;23.10;56.73
4199;BME280;2113;50.946;14.610;2023-05-21T11:59:35;97002.44;;;22.55;59.54
4199;BME280;2113;50.946;14.610;2023-05-21T12:02:04;96999.22;;;22.15;61.36
4199;BME280;2113;50.946;14.610;2023-05-21T12:04:35;96994.69;;;22.22;62.08
4199;BME280;2113;50.946;14.610;2023-05-21T12:07:03;96997.00;;;22.44;61.12
4199;BME280;2113;50.946;14.610;2023-05-21T12:09:37;97008.25;;;22.77;60.68
4199;BME280;2113;50.946;14.610;2023-05-21T12:12:07;97011.84;;;22.89;59.75
4199;BME280;2113;50.946;14.610;2023-05-21T12:14:36;97007.66;;;23.00;60.92
4199;BME280;2113;50.946;14.610;2023-05-21T12:17:05;96997.59;;;23.63;58.66
4199;BME280;2113;50.946;14.610;2023-05-21T12:19:36;97008.56;;;23.73;57.26
4199;BME280;2113;50.946;14.610;2023-05-21T12:22:05;97014.16;;;23.47;55.87
4199;BME280;2113;50.946;14.610;2023-05-21T12:24:36;97000.88;;;23.95;56.72
4199;BME280;2113;50.946;14.610;2023-05-21T12:30:24;97011.25;;;24.33;47.29
4199;BME280;2113;50.946;14.610;2023-05-21T12:32:56;97009.00;;;24.60;43.75
4199;BME280;2113;50.946;14.610;2023-05-21T12:35:26;97003.81;;;24.65;44.28
4199;BME280;2113;50.946;14.610;2023-05-21T12:37:55;97000.19;;;25.13;43.48
4199;BME280;2113;50.946;14.610;2023-05-21T12:40:33;97006.53;;;25.47;42.38
4199;BME280;2113;50.946;14.610;2023-05-21T12:43:04;97015.81;;;25.56;40.66
4199;BME280;2113;50.946;14.610;2023-05-21T12:45:33;97012.81;;;25.18;40.41
4199;BME280;2113;50.946;14.610;2023-05-21T12:48:02;97009.59;;;25.27;41.16
4199;BME280;2113;50.946;14.610;2023-05-21T12:50:33;97018.84;;;25.48;40.39
4199;BME280;2113;50.946;14.610;2023-05-21T12:53:02;97017.25;;;25.35;38.77
4199;BME280;2113;50.946;14.610;2023-05-21T12:55:32;97019.66;;;25.72;42.89
4199;BME280;2113;50.946;14.610;2023-05-21T12:58:04;97016.97;;;25.72;38.97
4199;BME280;2113;50.946;14.610;2023-05-21T13:00:35;97005.50;;;25.25;39.64
4199;BME280;2113;50.946;14.610;2023-05-21T13:03:05;97010.75;;;24.96;41.68
4199;BME280;2113;50.946;14.610;2023-05-21T13:05:38;97012.38;;;25.09;42.22
4199;BME280;2113;50.946;14.610;2023-05-21T13:08:07;97004.13;;;25.10;43.09
4199;BME280;2113;50.946;14.610;2023-05-21T13:10:36;97000.84;;;25.32;43.41
4199;BME280;2113;50.946;14.610;2023-05-21T13:13:05;97000.69;;;25.73;45.44
4199;BME280;2113;50.946;14.610;2023-05-21T13:15:33;96998.16;;;25.55;45.06
4199;BME280;2113;50.946;14.610;2023-05-21T13:18:02;96998.28;;;25.37;44.07
4199;BME280;2113;50.946;14.610;2023-05-21T13:20:31;96999.56;;;25.69;43.38
4199;BME280;2113;50.946;14.610;2023-05-21T13:23:01;97000.34;;;25.58;42.88
4199;BME280;2113;50.946;14.610;2023-05-21T13:25:33;97004.47;;;25.37;45.17
4199;BME280;2113;50.946;14.610;2023-05-21T13:28:02;97007.00;;;25.44;45.84
4199;BME280;2113;50.946;14.610;2023-05-21T13:30:31;97005.59;;;25.30;47.02
4199;BME280;2113;50.946;14.610;2023-05-21T13:33:00;96999.94;;;25.26;49.27
4199;BME280;2113;50.946;14.610;2023-05-21T13:35:32;97012.69;;;24.48;49.83
4199;BME280;2113;50.946;14.610;2023-05-21T13:38:02;97013.91;;;24.75;49.25
4199;BME280;2113;50.946;14.610;2023-05-21T13:40:30;97004.78;;;24.83;49.35
4199;BME280;2113;50.946;14.610;2023-05-21T13:42:59;97004.16;;;24.69;46.12
4199;BME280;2113;50.946;14.610;2023-05-21T13:45:27;97002.84;;;24.48;47.40